sensor_id;sensor_type;location;lat;lon;timestamp;pressure;altitude;pressure_sealevel;temperature;humidity
40908;BME280;51055;59.436;24.778;2023-05-23T00:00:06;101702.16;;;14.32;61.83
40908;BME280;51055;59.436;24.778;2023-05-23T00:02:34;101698.53;;;14.33;61.56
40908;BME280;51055;59.436;24.778;2023-05-23T00:05:02;101700.69;;;14.28;62.73
40908;BME280;51055;59.436;24.778;2023-05-23T00:07:30;101704.13;;;14.30;62.51
40908;BME280;51055;59.436;24.778;2023-05-23T00:09:58;101702.16;;;14.32;62.72
40908;BME280;51055;59.436;24.778;2023-05-23T00:12:26;101699.13;;;14.25;62.36
40908;BME280;51055;59.436;24.778;2023-05-23T00:14:53;101690.53;;;14.33;62.68
40908;BME280;51055;59.436;24.778;2023-05-23T00:17:21;101687.34;;;14.28;63.46
40908;BME280;51055;59.436;24.778;2023-05-23T00:19:52;101684.84;;;14.37;62.97
40908;BME280;51055;59.436;24.778;2023-05-23T00:22:20;101692.34;;;14.32;62.92
40908;BME280;51055;59.436;24.778;2023-05-23T00:24:47;101688.81;;;14.32;63.51
40908;BME280;51055;59.436;24.778;2023-05-23T00:27:15;101682.53;;;14.33;63.65
40908;BME280;51055;59.436;24.778;2023-05-23T00:29:42;101677.88;;;14.24;63.76
40908;BME280;51055;59.436;24.778;2023-05-23T00:32:10;101679.84;;;14.22;64.38
40908;BME280;51055;59.436;24.778;2023-05-23T00:34:38;101687.25;;;14.29;64.47
40908;BME280;51055;59.436;24.778;2023-05-23T00:37:06;101684.72;;;14.17;65.42
40908;BME280;51055;59.436;24.778;2023-05-23T00:39:34;101680.56;;;14.24;65.68
40908;BME280;51055;59.436;24.778;2023-05-23T00:42:03;101684.94;;;14.25;65.82
40908;BME280;51055;59.436;24.778;2023-05-23T00:44:31;101684.09;;;14.24;65.46
40908;BME280;51055;59.436;24.778;2023-05-23T00:46:59;101681.66;;;14.21;66.28
40908;BME280;51055;59.436;24.778;2023-05-23T00:49:26;101686.13;;;14.21;66.82
40908;BME280;51055;59.436;24.778;2023-05-23T00:51:54;101684.22;;;14.23;67.57
40908;BME280;51055;59.436;24.778;2023-05-23T00:54:24;101685.53;;;14.28;67.99
40908;BME280;51055;59.436;24.778;2023-05-23T00:56:53;101683.84;;;14.27;68.05
40908;BME280;51055;59.436;24.778;2023-05-23T00:59:23;101678.03;;;14.22;68.13
40908;BME280;51055;59.436;24.778;2023-05-23T01:01:53;101685.44;;;14.30;68.23
40908;BME280;51055;59.436;24.778;2023-05-23T01:04:22;101689.91;;;14.18;69.11
40908;BME280;51055;59.436;24.778;2023-05-23T01:06:54;101691.34;;;14.11;69.78
40908;BME280;51055;59.436;24.778;2023-05-23T01:09:24;101695.59;;;14.14;70.16
40908;BME280;51055;59.436;24.778;2023-05-23T01:14:51;101686.63;;;14.15;69.43
40908;BME280;51055;59.436;24.778;2023-05-23T01:17:53;101689.53;;;14.12;69.85
40908;BME280;51055;59.436;24.778;2023-05-23T01:20:21;101693.91;;;14.13;70.59
40908;BME280;51055;59.436;24.778;2023-05-23T01:28:49;101679.38;;;14.17;70.87
40908;BME280;51055;59.436;24.778;2023-05-23T01:31:19;101679.84;;;14.10;70.44
40908;BME280;51055;59.436;24.778;2023-05-23T01:33:49;101679.59;;;14.02;70.66
40908;BME280;51055;59.436;24.778;2023-05-23T01:36:21;101683.38;;;14.00;70.63
40908;BME280;51055;59.436;24.778;2023-05-23T01:38:48;101677.03;;;14.01;71.00
40908;BME280;51055;59.436;24.778;2023-05-23T01:41:16;101676.94;;;14.02;70.82
40908;BME280;51055;59.436;24.778;2023-05-23T01:43:44;101678.84;;;14.00;70.75
40908;BME280;51055;59.436;24.778;2023-05-23T01:46:14;101680.47;;;14.03;70.34
40908;BME280;51055;59.436;24.778;2023-05-23T01:48:44;101678.38;;;13.95;70.94
40908;BME280;51055;59.436;24.778;2023-05-23T01:51:13;101671.59;;;14.02;70.64
40908;BME280;51055;59.436;24.778;2023-05-23T01:53:41;101666.84;;;13.95;71.23
40908;BME280;51055;59.436;24.778;2023-05-23T01:56:09;101655.56;;;13.91;71.56
40908;BME280;51055;59.436;24.778;2023-05-23T01:58:37;101661.41;;;13.85;72.30
40908;BME280;51055;59.436;24.778;2023-05-23T02:01:05;101655.44;;;13.82;72.33
40908;BME280;51055;59.436;24.778;2023-05-23T02:03:33;101654.13;;;13.76;72.76
40908;BME280;51055;59.436;24.778;2023-05-23T02:06:00;101656.19;;;13.73;73.03
40908;BME280;51055;59.436;24.778;2023-05-23T02:08:28;101654.13;;;13.76;72.29
40908;BME280;51055;59.436;24.778;2023-05-23T02:10:56;101648.78;;;13.76;72.70
40908;BME280;51055;59.436;24.778;2023-05-23T02:13:23;101649.50;;;13.78;73.47
40908;BME280;51055;59.436;24.778;2023-05-23T02:15:51;101651.59;;;13.86;72.93
40908;BME280;51055;59.436;24.778;2023-05-23T02:18:19;101653.88;;;13.79;73.35
40908;BME280;51055;59.436;24.778;2023-05-23T02:20:46;101647.97;;;13.87;72.89
40908;BME280;51055;59.436;24.778;2023-05-23T02:23:14;101650.00;;;13.83;73.22
40908;BME280;51055;59.436;24.778;2023-05-23T02:25:42;101644.44;;;13.86;73.51
40908;BME280;51055;59.436;24.778;2023-05-23T02:28:10;101645.63;;;13.82;73.47
40908;BME280;51055;59.436;24.778;2023-05-23T02:30:39;101640.06;;;13.85;73.71
40908;BME280;51055;59.436;24.778;2023-05-23T02:33:07;101642.97;;;13.82;73.84
40908;BME280;51055;59.436;24.778;2023-05-23T02:35:35;101638.13;;;13.76;74.11
40908;BME280;51055;59.436;24.778;2023-05-23T02:38:03;101640.19;;;13.84;73.97
40908;BME280;51055;59.436;24.778;2023-05-23T02:40:31;101639.22;;;13.85;73.86
40908;BME280;51055;59.436;24.778;2023-05-23T02:42:58;101641.75;;;13.97;74.13
40908;BME280;51055;59.436;24.778;2023-05-23T02:45:26;101639.34;;;13.94;73.53
40908;BME280;51055;59.436;24.778;2023-05-23T02:47:54;101638.47;;;13.94;73.51
40908;BME280;51055;59.436;24.778;2023-05-23T02:50:22;101641.16;;;13.94;73.65
40908;BME280;51055;59.436;24.778;2023-05-23T02:52:49;101643.59;;;13.97;73.32
40908;BME280;51055;59.436;24.778;2023-05-23T02:55:17;101634.84;;;13.95;73.86
40908;BME280;51055;59.436;24.778;2023-05-23T02:57:45;101634.50;;;13.99;73.60
40908;BME280;51055;59.436;24.778;2023-05-23T03:00:12;101634.34;;;14.01;73.45
40908;BME280;51055;59.436;24.778;2023-05-23T03:02:41;101628.53;;;14.07;73.55
40908;BME280;51055;59.436;24.778;2023-05-23T03:05:09;101628.53;;;14.07;73.28
40908;BME280;51055;59.436;24.778;2023-05-23T03:07:37;101629.38;;;14.07;73.54
40908;BME280;51055;59.436;24.778;2023-05-23T03:10:06;101631.81;;;14.10;73.47
40908;BME280;51055;59.436;24.778;2023-05-23T03:12:33;101633.53;;;14.23;73.65
40908;BME280;51055;59.436;24.778;2023-05-23T03:15:02;101628.41;;;14.31;72.97
40908;BME280;51055;59.436;24.778;2023-05-23T03:17:29;101632.78;;;14.32;73.24
40908;BME280;51055;59.436;24.778;2023-05-23T03:19:57;101631.06;;;14.31;73.24
40908;BME280;51055;59.436;24.778;2023-05-23T03:22:25;101629.75;;;14.25;74.01
40908;BME280;51055;59.436;24.778;2023-05-23T03:24:53;101621.03;;;14.23;74.49
40908;BME280;51055;59.436;24.778;2023-05-23T03:27:20;101632.28;;;14.27;74.58
40908;BME280;51055;59.436;24.778;2023-05-23T03:29:48;101628.19;;;14.23;75.06
40908;BME280;51055;59.436;24.778;2023-05-23T03:32:16;101630.84;;;14.23;75.03
40908;BME280;51055;59.436;24.778;2023-05-23T03:34:44;101632.28;;;14.27;75.08
40908;BME280;51055;59.436;24.778;2023-05-23T03:37:11;101632.31;;;14.38;74.63
40908;BME280;51055;59.436;24.778;2023-05-23T03:39:39;101630.13;;;14.43;74.41
40908;BME280;51055;59.436;24.778;2023-05-23T03:42:07;101629.97;;;14.55;74.72
40908;BME280;51055;59.436;24.778;2023-05-23T03:44:34;101635.16;;;14.57;74.74
40908;BME280;51055;59.436;24.778;2023-05-23T03:47:02;101632.16;;;14.50;74.21
40908;BME280;51055;59.436;24.778;2023-05-23T03:49:30;101630.69;;;14.46;74.50
40908;BME280;51055;59.436;24.778;2023-05-23T03:51:57;101631.19;;;14.40;74.44
40908;BME280;51055;59.436;24.778;2023-05-23T03:54:25;101631.19;;;14.40;75.09
40908;BME280;51055;59.436;24.778;2023-05-23T03:56:52;101627.91;;;14.48;74.54
40908;BME280;51055;59.436;24.778;2023-05-23T03:59:20;101630.50;;;14.38;75.58
40908;BME280;51055;59.436;24.778;2023-05-23T04:01:48;101620.50;;;14.51;74.91
40908;BME280;51055;59.436;24.778;2023-05-23T04:04:15;101626.31;;;14.56;75.13
40908;BME280;51055;59.436;24.778;2023-05-23T04:06:43;101616.47;;;14.57;74.78
40908;BME280;51055;59.436;24.778;2023-05-23T04:09:11;101617.59;;;14.43;76.50
40908;BME280;51055;59.436;24.778;2023-05-23T04:11:38;101618.31;;;14.56;75.90
40908;BME280;51055;59.436;24.778;2023-05-23T04:14:06;101617.59;;;14.54;75.75
40908;BME280;51055;59.436;24.778;2023-05-23T04:16:34;101614.13;;;14.43;76.79
40908;BME280;51055;59.436;24.778;2023-05-23T04:19:02;101608.84;;;14.30;77.77
40908;BME280;51055;59.436;24.778;2023-05-23T04:21:33;101614.22;;;14.41;77.39
40908;BME280;51055;59.436;24.778;2023-05-23T04:24:01;101611.44;;;14.43;77.57
40908;BME280;51055;59.436;24.778;2023-05-23T04:26:29;101611.53;;;14.52;77.62
40908;BME280;51055;59.436;24.778;2023-05-23T04:28:57;101612.97;;;14.56;77.66
40908;BME280;51055;59.436;24.778;2023-05-23T04:31:25;101615.00;;;14.64;77.75
40908;BME280;51055;59.436;24.778;2023-05-23T04:33:53;101612.69;;;14.71;76.38
40908;BME280;51055;59.436;24.778;2023-05-23T04:36:21;101612.44;;;14.74;76.70
40908;BME280;51055;59.436;24.778;2023-05-23T04:38:49;101623.44;;;14.80;76.40
40908;BME280;51055;59.436;24.778;2023-05-23T04:41:17;101618.44;;;14.87;76.56
40908;BME280;51055;59.436;24.778;2023-05-23T04:43:50;101622.06;;;14.97;76.77
40908;BME280;51055;59.436;24.778;2023-05-23T04:46:20;101620.41;;;14.85;75.71
40908;BME280;51055;59.436;24.778;2023-05-23T04:48:52;101623.94;;;14.85;76.79
40908;BME280;51055;59.436;24.778;2023-05-23T04:51:21;101622.94;;;14.86;75.78
40908;BME280;51055;59.436;24.778;2023-05-23T04:53:49;101624.91;;;14.84;76.49
40908;BME280;51055;59.436;24.778;2023-05-23T04:56:17;101624.28;;;14.92;76.01
40908;BME280;51055;59.436;24.778;2023-05-23T04:58:48;101622.81;;;14.88;76.88
40908;BME280;51055;59.436;24.778;2023-05-23T05:01:15;101622.41;;;14.92;76.81
40908;BME280;51055;59.436;24.778;2023-05-23T05:03:43;101618.00;;;15.02;76.25
40908;BME280;51055;59.436;24.778;2023-05-23T05:06:11;101621.16;;;15.07;75.25
40908;BME280;51055;59.436;24.778;2023-05-23T05:08:38;101618.56;;;15.17;75.56
40908;BME280;51055;59.436;24.778;2023-05-23T05:11:08;101621.03;;;15.30;75.19
40908;BME280;51055;59.436;24.778;2023-05-23T05:13:36;101623.88;;;15.49;73.95
40908;BME280;51055;59.436;24.778;2023-05-23T05:16:04;101620.44;;;15.68;73.73
40908;BME280;51055;59.436;24.778;2023-05-23T05:18:31;101616.31;;;15.84;72.41
40908;BME280;51055;59.436;24.778;2023-05-23T05:20:59;101618.81;;;16.06;70.11
40908;BME280;51055;59.436;24.778;2023-05-23T05:23:27;101611.13;;;16.23;68.66
40908;BME280;51055;59.436;24.778;2023-05-23T05:25:55;101610.31;;;16.41;67.99
40908;BME280;51055;59.436;24.778;2023-05-23T05:28:23;101601.66;;;16.68;66.96
40908;BME280;51055;59.436;24.778;2023-05-23T05:30:51;101604.91;;;16.91;66.71
40908;BME280;51055;59.436;24.778;2023-05-23T05:33:21;101602.22;;;17.10;65.26
40908;BME280;51055;59.436;24.778;2023-05-23T05:35:51;101595.56;;;17.24;64.52
40908;BME280;51055;59.436;24.778;2023-05-23T05:38:19;101594.53;;;17.34;63.56
40908;BME280;51055;59.436;24.778;2023-05-23T05:40:47;101592.81;;;17.52;62.76
40908;BME280;51055;59.436;24.778;2023-05-23T05:43:14;101593.38;;;17.65;62.76
40908;BME280;51055;59.436;24.778;2023-05-23T05:45:42;101590.94;;;17.72;61.54
40908;BME280;51055;59.436;24.778;2023-05-23T05:48:10;101590.88;;;17.91;60.82
40908;BME280;51055;59.436;24.778;2023-05-23T05:50:38;101591.25;;;18.06;60.87
40908;BME280;51055;59.436;24.778;2023-05-23T05:53:06;101594.41;;;18.19;59.72
40908;BME280;51055;59.436;24.778;2023-05-23T05:55:34;101598.63;;;18.21;59.23
40908;BME280;51055;59.436;24.778;2023-05-23T05:58:02;101600.31;;;18.50;59.43
40908;BME280;51055;59.436;24.778;2023-05-23T06:00:30;101602.88;;;18.69;58.03
40908;BME280;51055;59.436;24.778;2023-05-23T06:02:57;101594.72;;;18.79;56.86
40908;BME280;51055;59.436;24.778;2023-05-23T06:05:25;101599.13;;;18.97;56.71
40908;BME280;51055;59.436;24.778;2023-05-23T06:07:53;101596.88;;;19.10;56.72
40908;BME280;51055;59.436;24.778;2023-05-23T06:10:21;101591.78;;;19.25;55.46
40908;BME280;51055;59.436;24.778;2023-05-23T06:12:48;101592.66;;;19.51;55.28
40908;BME280;51055;59.436;24.778;2023-05-23T06:15:16;101588.09;;;19.77;53.92
40908;BME280;51055;59.436;24.778;2023-05-23T06:17:44;101598.53;;;20.14;51.96
40908;BME280;51055;59.436;24.778;2023-05-23T06:20:12;101593.97;;;20.49;51.19
40908;BME280;51055;59.436;24.778;2023-05-23T06:22:39;101591.38;;;21.13;50.05
40908;BME280;51055;59.436;24.778;2023-05-23T06:25:07;101586.16;;;21.83;47.90
40908;BME280;51055;59.436;24.778;2023-05-23T06:27:35;101578.94;;;23.44;43.76
40908;BME280;51055;59.436;24.778;2023-05-23T06:30:04;101584.81;;;26.58;36.64
40908;BME280;51055;59.436;24.778;2023-05-23T06:32:32;101573.06;;;29.15;31.95
40908;BME280;51055;59.436;24.778;2023-05-23T06:34:59;101581.88;;;30.69;28.42
40908;BME280;51055;59.436;24.778;2023-05-23T06:37:27;101576.91;;;31.54;27.69
40908;BME280;51055;59.436;24.778;2023-05-23T06:39:55;101582.44;;;31.94;27.21
40908;BME280;51055;59.436;24.778;2023-05-23T06:42:22;101586.53;;;31.33;27.09
40908;BME280;51055;59.436;24.778;2023-05-23T06:44:50;101587.59;;;29.09;30.48
40908;BME280;51055;59.436;24.778;2023-05-23T06:47:17;101592.72;;;26.39;34.21
40908;BME280;51055;59.436;24.778;2023-05-23T06:49:45;101592.09;;;25.13;37.71
40908;BME280;51055;59.436;24.778;2023-05-23T06:52:13;101586.03;;;24.33;37.45
40908;BME280;51055;59.436;24.778;2023-05-23T06:54:42;101590.63;;;24.03;38.89
40908;BME280;51055;59.436;24.778;2023-05-23T06:57:10;101593.38;;;24.75;38.24
40908;BME280;51055;59.436;24.778;2023-05-23T06:59:38;101595.19;;;27.67;33.13
40908;BME280;51055;59.436;24.778;2023-05-23T07:02:05;101590.53;;;30.96;28.42
40908;BME280;51055;59.436;24.778;2023-05-23T07:04:33;101588.03;;;32.50;25.84
40908;BME280;51055;59.436;24.778;2023-05-23T07:07:00;101587.31;;;33.00;24.41
40908;BME280;51055;59.436;24.778;2023-05-23T07:09:28;101584.25;;;33.30;24.44
40908;BME280;51055;59.436;24.778;2023-05-23T07:11:56;101579.38;;;31.79;25.28
40908;BME280;51055;59.436;24.778;2023-05-23T07:14:24;101583.16;;;29.64;28.60
40908;BME280;51055;59.436;24.778;2023-05-23T07:16:52;101586.97;;;31.07;26.44
40908;BME280;51055;59.436;24.778;2023-05-23T07:19:19;101582.88;;;32.82;24.83
40908;BME280;51055;59.436;24.778;2023-05-23T07:21:47;101585.41;;;30.70;26.37
40908;BME280;51055;59.436;24.778;2023-05-23T07:24:15;101592.69;;;31.06;26.85
40908;BME280;51055;59.436;24.778;2023-05-23T07:26:43;101589.06;;;28.80;28.72
40908;BME280;51055;59.436;24.778;2023-05-23T07:29:10;101601.88;;;26.25;33.05
40908;BME280;51055;59.436;24.778;2023-05-23T07:31:38;101597.91;;;25.31;35.47
40908;BME280;51055;59.436;24.778;2023-05-23T07:34:06;101603.38;;;24.53;35.85
40908;BME280;51055;59.436;24.778;2023-05-23T07:36:33;101603.69;;;23.70;38.22
40908;BME280;51055;59.436;24.778;2023-05-23T07:39:02;101614.59;;;22.57;40.63
40908;BME280;51055;59.436;24.778;2023-05-23T07:41:30;101606.31;;;22.19;42.84
40908;BME280;51055;59.436;24.778;2023-05-23T07:43:58;101608.63;;;22.61;41.86
40908;BME280;51055;59.436;24.778;2023-05-23T07:46:26;101601.53;;;24.39;37.52
40908;BME280;51055;59.436;24.778;2023-05-23T07:48:53;101596.16;;;25.24;36.45
40908;BME280;51055;59.436;24.778;2023-05-23T07:51:21;101595.06;;;25.46;35.82
40908;BME280;51055;59.436;24.778;2023-05-23T07:53:49;101599.41;;;25.62;35.02
40908;BME280;51055;59.436;24.778;2023-05-23T07:56:16;101601.06;;;25.63;35.21
40908;BME280;51055;59.436;24.778;2023-05-23T07:58:44;101598.75;;;25.60;35.65
40908;BME280;51055;59.436;24.778;2023-05-23T08:01:12;101603.34;;;25.31;35.66
40908;BME280;51055;59.436;24.778;2023-05-23T08:03:40;101598.38;;;25.14;35.18
40908;BME280;51055;59.436;24.778;2023-05-23T08:06:07;101600.03;;;24.72;35.71
40908;BME280;51055;59.436;24.778;2023-05-23T08:08:35;101601.03;;;24.50;36.56
40908;BME280;51055;59.436;24.778;2023-05-23T08:11:03;101600.34;;;24.12;36.75
40908;BME280;51055;59.436;24.778;2023-05-23T08:13:31;101601.47;;;23.74;37.68
40908;BME280;51055;59.436;24.778;2023-05-23T08:15:59;101608.09;;;23.34;37.87
40908;BME280;51055;59.436;24.778;2023-05-23T08:18:26;101613.00;;;23.16;39.01
40908;BME280;51055;59.436;24.778;2023-05-23T08:20:54;101612.31;;;22.76;39.80
40908;BME280;51055;59.436;24.778;2023-05-23T08:23:22;101605.38;;;22.43;40.22
40908;BME280;51055;59.436;24.778;2023-05-23T08:25:51;101609.16;;;22.26;41.01
40908;BME280;51055;59.436;24.778;2023-05-23T08:28:19;101607.38;;;22.18;41.21
40908;BME280;51055;59.436;24.778;2023-05-23T08:30:47;101613.38;;;21.90;42.22
40908;BME280;51055;59.436;24.778;2023-05-23T08:33:15;101607.78;;;21.83;42.60
40908;BME280;51055;59.436;24.778;2023-05-23T08:35:42;101610.47;;;21.83;42.96
40908;BME280;51055;59.436;24.778;2023-05-23T08:38:10;101612.22;;;21.60;43.73
40908;BME280;51055;59.436;24.778;2023-05-23T08:40:38;101616.31;;;21.56;43.61
40908;BME280;51055;59.436;24.778;2023-05-23T08:43:09;101611.22;;;21.61;44.35
40908;BME280;51055;59.436;24.778;2023-05-23T08:45:39;101605.16;;;21.59;44.35
40908;BME280;51055;59.436;24.778;2023-05-23T08:48:08;101615.09;;;21.50;44.86
40908;BME280;51055;59.436;24.778;2023-05-23T08:50:36;101612.75;;;21.47;46.37
40908;BME280;51055;59.436;24.778;2023-05-23T08:53:04;101606.34;;;21.40;45.45
40908;BME280;51055;59.436;24.778;2023-05-23T08:55:36;101597.44;;;21.32;45.43
40908;BME280;51055;59.436;24.778;2023-05-23T08:58:05;101604.88;;;21.29;46.03
40908;BME280;51055;59.436;24.778;2023-05-23T09:00:33;101597.94;;;21.35;45.63
40908;BME280;51055;59.436;24.778;2023-05-23T09:03:01;101596.75;;;21.38;45.99
40908;BME280;51055;59.436;24.778;2023-05-23T09:05:29;101600.63;;;21.43;44.91
40908;BME280;51055;59.436;24.778;2023-05-23T09:07:57;101601.47;;;21.27;45.63
40908;BME280;51055;59.436;24.778;2023-05-23T09:10:25;101603.31;;;21.27;45.78
40908;BME280;51055;59.436;24.778;2023-05-23T09:12:56;101601.00;;;21.16;45.43
40908;BME280;51055;59.436;24.778;2023-05-23T09:15:24;101595.41;;;21.17;45.90
40908;BME280;51055;59.436;24.778;2023-05-23T09:17:52;101592.38;;;21.12;45.94
40908;BME280;51055;59.436;24.778;2023-05-23T09:20:20;101599.63;;;21.12;45.96
40908;BME280;51055;59.436;24.778;2023-05-23T09:22:48;101590.00;;;20.93;46.29
40908;BME280;51055;59.436;24.778;2023-05-23T09:25:15;101592.34;;;20.88;46.73
40908;BME280;51055;59.436;24.778;2023-05-23T09:27:43;101592.34;;;20.96;46.88
40908;BME280;51055;59.436;24.778;2023-05-23T09:30:14;101588.97;;;20.94;45.92
40908;BME280;51055;59.436;24.778;2023-05-23T09:32:56;101584.06;;;20.98;47.01
40908;BME280;51055;59.436;24.778;2023-05-23T09:35:27;101590.03;;;21.09;46.71
40908;BME280;51055;59.436;24.778;2023-05-23T09:37:56;101590.66;;;20.95;46.77
40908;BME280;51055;59.436;24.778;2023-05-23T09:40:29;101589.13;;;20.85;46.92
40908;BME280;51055;59.436;24.778;2023-05-23T09:43:02;101594.72;;;20.83;47.07
40908;BME280;51055;59.436;24.778;2023-05-23T09:45:31;101598.75;;;20.87;47.24
40908;BME280;51055;59.436;24.778;2023-05-23T09:47:59;101595.22;;;20.87;46.54
40908;BME280;51055;59.436;24.778;2023-05-23T09:50:32;101593.88;;;20.91;47.02
40908;BME280;51055;59.436;24.778;2023-05-23T09:53:00;101592.53;;;20.87;47.40
40908;BME280;51055;59.436;24.778;2023-05-23T09:55:28;101590.66;;;20.87;47.04
40908;BME280;51055;59.436;24.778;2023-05-23T09:57:57;101590.16;;;20.92;47.27
40908;BME280;51055;59.436;24.778;2023-05-23T10:00:25;101586.78;;;20.98;47.86
40908;BME280;51055;59.436;24.778;2023-05-23T10:03:10;101590.31;;;20.98;47.52
40908;BME280;51055;59.436;24.778;2023-05-23T10:05:47;101585.28;;;21.03;47.43
40908;BME280;51055;59.436;24.778;2023-05-23T10:08:18;101580.09;;;21.10;48.31
40908;BME280;51055;59.436;24.778;2023-05-23T10:13:44;101578.41;;;21.17;48.22
40908;BME280;51055;59.436;24.778;2023-05-23T10:19:00;101586.31;;;21.18;47.40
40908;BME280;51055;59.436;24.778;2023-05-23T10:21:32;101583.44;;;21.28;48.33
40908;BME280;51055;59.436;24.778;2023-05-23T10:24:06;101586.81;;;21.30;47.72
40908;BME280;51055;59.436;24.778;2023-05-23T10:26:34;101582.09;;;21.32;46.70
40908;BME280;51055;59.436;24.778;2023-05-23T10:29:02;101584.78;;;21.32;46.97
40908;BME280;51055;59.436;24.778;2023-05-23T10:31:30;101581.72;;;21.27;47.25
40908;BME280;51055;59.436;24.778;2023-05-23T10:36:54;101587.47;;;21.32;47.51
40908;BME280;51055;59.436;24.778;2023-05-23T10:42:00;101591.69;;;21.43;46.50
40908;BME280;51055;59.436;24.778;2023-05-23T10:44:29;101594.03;;;21.38;47.41
40908;BME280;51055;59.436;24.778;2023-05-23T10:46:59;101588.66;;;21.29;45.94
40908;BME280;51055;59.436;24.778;2023-05-23T10:49:45;101591.38;;;21.29;45.78
40908;BME280;51055;59.436;24.778;2023-05-23T10:52:16;101587.97;;;21.27;46.25
40908;BME280;51055;59.436;24.778;2023-05-23T10:54:47;101597.75;;;21.20;46.62
40908;BME280;51055;59.436;24.778;2023-05-23T10:57:17;101601.47;;;21.11;47.39
40908;BME280;51055;59.436;24.778;2023-05-23T10:59:46;101597.06;;;21.02;47.63
40908;BME280;51055;59.436;24.778;2023-05-23T11:02:18;101602.97;;;20.98;48.20
40908;BME280;51055;59.436;24.778;2023-05-23T11:08:11;101595.22;;;21.27;47.15
40908;BME280;51055;59.436;24.778;2023-05-23T11:11:01;101585.44;;;21.34;46.80
40908;BME280;51055;59.436;24.778;2023-05-23T11:13:58;101593.03;;;21.39;45.96
40908;BME280;51055;59.436;24.778;2023-05-23T11:16:49;101591.69;;;21.35;45.52
40908;BME280;51055;59.436;24.778;2023-05-23T11:24:13;101602.00;;;21.15;45.77
40908;BME280;51055;59.436;24.778;2023-05-23T11:26:51;101601.78;;;21.08;45.49
40908;BME280;51055;59.436;24.778;2023-05-23T11:29:20;101606.16;;;21.01;46.02
40908;BME280;51055;59.436;24.778;2023-05-23T11:31:47;101602.97;;;20.98;45.78
40908;BME280;51055;59.436;24.778;2023-05-23T11:34:17;101602.97;;;20.98;46.65
40908;BME280;51055;59.436;24.778;2023-05-23T11:36:44;101601.97;;;20.91;46.11
40908;BME280;51055;59.436;24.778;2023-05-23T11:39:12;101598.41;;;20.98;46.69
40908;BME280;51055;59.436;24.778;2023-05-23T11:41:41;101608.91;;;21.17;46.49
40908;BME280;51055;59.436;24.778;2023-05-23T11:44:11;101601.47;;;21.36;44.69
40908;BME280;51055;59.436;24.778;2023-05-23T11:46:39;101607.19;;;21.49;44.28
40908;BME280;51055;59.436;24.778;2023-05-23T11:49:10;101614.25;;;21.66;44.30
40908;BME280;51055;59.436;24.778;2023-05-23T11:51:39;101603.78;;;21.71;43.72
40908;BME280;51055;59.436;24.778;2023-05-23T11:54:06;101608.31;;;21.70;43.73
40908;BME280;51055;59.436;24.778;2023-05-23T11:56:38;101603.63;;;21.56;43.67
40908;BME280;51055;59.436;24.778;2023-05-23T11:59:06;101606.19;;;21.50;44.01
40908;BME280;51055;59.436;24.778;2023-05-23T12:01:35;101600.78;;;21.50;42.96
40908;BME280;51055;59.436;24.778;2023-05-23T12:04:09;101600.78;;;21.50;43.51
40908;BME280;51055;59.436;24.778;2023-05-23T12:06:39;101602.81;;;21.56;43.74
40908;BME280;51055;59.436;24.778;2023-05-23T12:09:10;101605.66;;;21.62;43.45
40908;BME280;51055;59.436;24.778;2023-05-23T12:11:40;101603.06;;;21.85;43.13
40908;BME280;51055;59.436;24.778;2023-05-23T12:14:13;101601.53;;;21.82;43.73
40908;BME280;51055;59.436;24.778;2023-05-23T12:16:44;101595.63;;;21.95;42.55
40908;BME280;51055;59.436;24.778;2023-05-23T12:19:15;101594.25;;;21.99;42.73
40908;BME280;51055;59.436;24.778;2023-05-23T12:21:45;101592.59;;;21.98;42.79
40908;BME280;51055;59.436;24.778;2023-05-23T12:24:15;101599.50;;;21.85;42.38
40908;BME280;51055;59.436;24.778;2023-05-23T12:26:50;101592.81;;;21.64;41.13
40908;BME280;51055;59.436;24.778;2023-05-23T12:29:29;101598.41;;;21.47;42.82
40908;BME280;51055;59.436;24.778;2023-05-23T12:32:02;101598.75;;;21.52;42.65
40908;BME280;51055;59.436;24.778;2023-05-23T12:34:30;101603.97;;;21.53;44.13
40908;BME280;51055;59.436;24.778;2023-05-23T12:37:00;101599.44;;;21.46;43.20
40908;BME280;51055;59.436;24.778;2023-05-23T12:39:35;101605.19;;;21.43;43.69
40908;BME280;51055;59.436;24.778;2023-05-23T12:42:07;101596.59;;;21.39;43.64
40908;BME280;51055;59.436;24.778;2023-05-23T12:44:35;101606.19;;;21.34;42.71
40908;BME280;51055;59.436;24.778;2023-05-23T12:47:03;101609.91;;;21.33;43.14
40908;BME280;51055;59.436;24.778;2023-05-23T12:49:30;101618.69;;;21.26;41.50
40908;BME280;51055;59.436;24.778;2023-05-23T12:51:58;101609.56;;;21.27;42.89
40908;BME280;51055;59.436;24.778;2023-05-23T12:54:26;101613.97;;;21.28;41.90
40908;BME280;51055;59.436;24.778;2023-05-23T12:56:54;101604.34;;;21.26;41.08
40908;BME280;51055;59.436;24.778;2023-05-23T12:59:21;101601.81;;;21.24;41.14
40908;BME280;51055;59.436;24.778;2023-05-23T13:01:50;101597.59;;;21.22;40.89
40908;BME280;51055;59.436;24.778;2023-05-23T13:04:17;101597.59;;;21.22;40.51
40908;BME280;51055;59.436;24.778;2023-05-23T13:06:45;101596.25;;;21.18;40.40
40908;BME280;51055;59.436;24.778;2023-05-23T13:09:13;101593.22;;;21.13;40.64
40908;BME280;51055;59.436;24.778;2023-05-23T13:11:40;101601.13;;;21.14;42.01
40908;BME280;51055;59.436;24.778;2023-05-23T13:14:08;101592.72;;;21.17;43.31
40908;BME280;51055;59.436;24.778;2023-05-23T13:16:36;101589.19;;;21.17;43.68